Time;durP1;ratioP1;P1;durP2;ratioP2;P2;SDS_P1;SDS_P2;PMS_P1;PMS_P2;Temp;Humidity;BMP_temperature;BMP_pressure;BME280_temperature;BME280_humidity;BME280_pressure;Samples;Min_cycle;Max_cycle;Signal;HPM_P1;HPM_P2
2022/12/12 00:00:21;;;;;;;;;;;2.70;99.90;;;;;;5122638;27;19951;-43
2022/12/12 00:02:46;;;;;;;;;;;2.60;99.90;;;;;;5141742;27;19911;-44
2022/12/12 00:05:16;;;;;;;;;;;2.60;99.90;;;;;;5141483;27;19975;-43
2022/12/12 00:07:41;;;;;;;;;;;2.70;99.90;;;;;;5141735;27;19907;-43
2022/12/12 00:10:07;;;;;;;;;;;2.70;99.90;;;;;;5141139;27;20251;-43
2022/12/12 00:12:33;;;;;;;;;;;2.70;99.90;;;;;;5141610;27;19907;-44
2022/12/12 00:14:59;;;;;;;;;;;2.60;99.90;;;;;;5141182;27;20354;-46
2022/12/12 00:17:24;;;;;;;;;;;2.60;99.90;;;;;;5141254;27;19915;-43
2022/12/12 00:19:50;;;;;;;;;;;2.70;99.90;;;;;;5141246;27;19998;-43
2022/12/12 00:22:15;;;;;;;;;;;2.60;99.90;;;;;;5140960;27;19914;-43
2022/12/12 00:24:41;;;;;;;;;;;2.50;99.90;;;;;;5140658;27;20002;-43
2022/12/12 00:27:07;;;;;;;;;;;2.50;99.90;;;;;;5141283;27;20081;-45
2022/12/12 00:29:32;;;;;;;;;;;2.50;99.90;;;;;;5141075;27;19934;-46
2022/12/12 00:31:58;;;;;;;;;;;2.50;99.90;;;;;;5141252;27;19930;-43
2022/12/12 00:34:23;;;;;;;;;;;2.50;99.90;;;;;;5140795;27;19973;-44
2022/12/12 00:36:50;;;;;;;;;;;2.40;99.90;;;;;;5140728;27;19908;-43
2022/12/12 00:39:16;;;;;;;;;;;2.40;99.90;;;;;;5140808;27;19911;-43
2022/12/12 00:41:42;;;;;;;;;;;2.40;99.90;;;;;;5140676;27;19907;-43
2022/12/12 00:44:08;;;;;;;;;;;2.40;99.90;;;;;;5140769;27;19947;-43
2022/12/12 00:46:34;;;;;;;;;;;2.40;99.90;;;;;;5140548;27;19914;-43
2022/12/12 00:48:59;;;;;;;;;;;2.50;99.90;;;;;;5140848;27;20354;-43
2022/12/12 00:51:26;;;;;;;;;;;2.40;99.90;;;;;;5140581;27;19918;-43
2022/12/12 00:53:52;;;;;;;;;;;2.40;99.90;;;;;;5140881;27;19914;-42
2022/12/12 00:56:19;;;;;;;;;;;2.40;99.90;;;;;;5140643;27;20322;-43
2022/12/12 00:58:45;;;;;;;;;;;2.40;99.90;;;;;;5140255;27;19919;-42
2022/12/12 01:01:13;;;;;;;;;;;2.40;99.90;;;;;;5140534;27;19952;-43
2022/12/12 01:03:39;;;;;;;;;;;2.40;99.90;;;;;;5140357;27;19908;-43
2022/12/12 01:06:05;;;;;;;;;;;2.40;99.90;;;;;;5140517;27;19908;-43
2022/12/12 01:08:31;;;;;;;;;;;2.30;99.90;;;;;;5140310;27;19911;-43
2022/12/12 01:10:57;;;;;;;;;;;2.30;99.90;;;;;;5140195;27;19964;-44
2022/12/12 01:13:23;;;;;;;;;;;2.30;99.90;;;;;;5140210;27;19914;-43
2022/12/12 01:15:48;;;;;;;;;;;2.30;99.90;;;;;;5140401;27;19914;-43
2022/12/12 01:18:15;;;;;;;;;;;2.30;99.90;;;;;;5139798;27;19907;-43
2022/12/12 01:20:41;;;;;;;;;;;2.20;99.90;;;;;;5139837;27;19907;-42
2022/12/12 01:23:06;;;;;;;;;;;2.20;99.90;;;;;;5139820;27;19916;-43
2022/12/12 01:25:32;;;;;;;;;;;2.20;99.90;;;;;;5140127;27;20033;-43
2022/12/12 01:27:58;;;;;;;;;;;2.10;99.90;;;;;;5139745;27;19931;-43
2022/12/12 01:30:24;;;;;;;;;;;2.20;99.90;;;;;;5139475;27;19963;-43
2022/12/12 01:32:50;;;;;;;;;;;2.10;99.90;;;;;;5139963;27;20354;-43
2022/12/12 01:35:16;;;;;;;;;;;2.10;99.90;;;;;;5139939;27;20010;-43
2022/12/12 01:37:42;;;;;;;;;;;2.10;99.90;;;;;;5139169;27;20002;-44
2022/12/12 01:40:13;;;;;;;;;;;2.10;99.90;;;;;;5139432;27;19953;-43
2022/12/12 01:42:38;;;;;;;;;;;2.00;99.90;;;;;;5139963;27;19907;-42
2022/12/12 01:45:05;;;;;;;;;;;2.00;99.90;;;;;;5139559;27;19957;-44
2022/12/12 01:47:30;;;;;;;;;;;2.00;99.90;;;;;;5139384;27;20030;-43
2022/12/12 01:49:56;;;;;;;;;;;2.00;99.90;;;;;;5139453;27;19958;-43
2022/12/12 01:52:23;;;;;;;;;;;2.00;99.90;;;;;;5139331;27;19914;-42
2022/12/12 01:54:52;;;;;;;;;;;2.10;99.90;;;;;;5139546;27;20613;-43
2022/12/12 01:57:22;;;;;;;;;;;2.00;99.90;;;;;;5139549;27;19908;-43
2022/12/12 01:59:47;;;;;;;;;;;2.00;99.90;;;;;;5138985;27;19931;-43
2022/12/12 02:02:13;;;;;;;;;;;1.90;99.90;;;;;;5139280;27;19908;-43
2022/12/12 02:04:39;;;;;;;;;;;1.90;99.90;;;;;;5139581;27;19912;-44
2022/12/12 02:07:05;;;;;;;;;;;2.00;99.90;;;;;;5139267;27;19970;-44
2022/12/12 02:09:31;;;;;;;;;;;2.00;99.90;;;;;;5139284;27;20397;-44
2022/12/12 02:11:58;;;;;;;;;;;2.00;99.90;;;;;;5139264;27;20354;-44
2022/12/12 02:14:23;;;;;;;;;;;2.00;99.90;;;;;;5139034;27;19960;-43
2022/12/12 02:16:49;;;;;;;;;;;1.90;99.90;;;;;;5120510;28;20014;-43
2022/12/12 02:19:33;;;;;;;;;;;1.90;99.90;;;;;;5139102;28;19918;-43
2022/12/12 02:22:17;;;;;;;;;;;1.80;99.90;;;;;;5139112;28;19908;-43
2022/12/12 02:24:43;;;;;;;;;;;1.90;99.90;;;;;;5138797;28;19907;-44
2022/12/12 02:27:32;;;;;;;;;;;1.90;99.90;;;;;;5138663;28;19960;-44
2022/12/12 02:30:01;;;;;;;;;;;1.90;99.90;;;;;;5138816;28;19946;-43
2022/12/12 02:32:26;;;;;;;;;;;1.90;99.90;;;;;;5138780;28;19907;-42
2022/12/12 02:35:05;;;;;;;;;;;1.80;99.90;;;;;;5138592;28;19907;-44
2022/12/12 02:37:46;;;;;;;;;;;1.80;99.90;;;;;;5139015;28;19914;-43
2022/12/12 02:40:19;;;;;;;;;;;1.80;99.90;;;;;;5139099;28;19915;-42
2022/12/12 02:42:58;;;;;;;;;;;1.80;99.90;;;;;;5139139;28;20421;-44
2022/12/12 02:45:42;;;;;;;;;;;1.80;99.90;;;;;;5138984;28;19911;-43
2022/12/12 02:48:17;;;;;;;;;;;1.80;99.90;;;;;;5140062;27;19915;-43
2022/12/12 02:50:43;;;;;;;;;;;1.80;99.90;;;;;;5142616;27;19911;-45
2022/12/12 02:53:09;;;;;;;;;;;1.70;99.90;;;;;;5142935;27;19914;-44
2022/12/12 02:55:35;;;;;;;;;;;1.70;99.90;;;;;;5142690;27;19907;-44
2022/12/12 02:58:01;;;;;;;;;;;1.80;99.90;;;;;;5142972;27;19914;-43
2022/12/12 03:00:31;;;;;;;;;;;1.80;99.90;;;;;;5142231;27;19964;-43
2022/12/12 03:08:59;;;;;;;;;;;1.70;99.90;;;;;;5142561;27;19957;-44
2022/12/12 03:11:48;;;;;;;;;;;1.70;99.90;;;;;;5142512;27;19926;-44
2022/12/12 03:14:25;;;;;;;;;;;1.60;99.90;;;;;;5142535;27;19954;-43
2022/12/12 03:16:56;;;;;;;;;;;1.50;99.90;;;;;;5142521;27;19914;-43
2022/12/12 03:19:28;;;;;;;;;;;1.60;99.90;;;;;;5142238;27;19933;-43
2022/12/12 03:21:59;;;;;;;;;;;1.60;99.90;;;;;;5142196;27;19908;-42
2022/12/12 03:24:50;;;;;;;;;;;1.60;99.90;;;;;;5142407;27;19915;-44
2022/12/12 03:27:19;;;;;;;;;;;1.50;99.90;;;;;;5142139;27;19907;-43
2022/12/12 03:30:00;;;;;;;;;;;1.50;99.90;;;;;;5142162;27;19937;-44
2022/12/12 03:32:33;;;;;;;;;;;1.50;99.90;;;;;;5141899;27;20354;-43
2022/12/12 03:35:01;;;;;;;;;;;1.50;99.90;;;;;;5141728;27;19980;-43
2022/12/12 03:37:32;;;;;;;;;;;1.50;99.90;;;;;;5142051;27;19907;-43
2022/12/12 03:40:02;;;;;;;;;;;1.50;99.90;;;;;;5141826;27;19914;-43
2022/12/12 03:42:36;;;;;;;;;;;1.50;99.90;;;;;;5141988;27;19921;-43
2022/12/12 03:45:05;;;;;;;;;;;1.40;99.90;;;;;;5141845;27;19908;-43
2022/12/12 03:47:34;;;;;;;;;;;1.40;99.90;;;;;;5141670;27;19907;-43
2022/12/12 03:50:10;;;;;;;;;;;1.40;99.90;;;;;;5141501;27;20289;-43
2022/12/12 03:52:42;;;;;;;;;;;1.40;99.90;;;;;;5141594;27;20044;-43
2022/12/12 03:55:18;;;;;;;;;;;1.40;99.90;;;;;;5141765;27;19968;-44
2022/12/12 03:57:50;;;;;;;;;;;1.30;99.90;;;;;;5141936;27;20359;-44
2022/12/12 04:00:17;;;;;;;;;;;1.40;99.90;;;;;;5140366;27;19920;-43
2022/12/12 04:02:57;;;;;;;;;;;1.40;99.90;;;;;;5141580;27;19908;-43
2022/12/12 04:06:25;;;;;;;;;;;1.40;99.90;;;;;;5141482;27;20006;-44
2022/12/12 04:08:24;;;;;;;;;;;1.40;99.90;;;;;;5141074;27;19907;-42
2022/12/12 04:14:06;;;;;;;;;;;1.40;99.90;;;;;;5141459;27;19915;-42
2022/12/12 04:16:35;;;;;;;;;;;1.30;99.90;;;;;;5118757;27;19907;-43
2022/12/12 04:19:03;;;;;;;;;;;1.30;99.90;;;;;;5141312;27;19935;-43
2022/12/12 04:24:42;;;;;;;;;;;1.30;99.90;;;;;;5140859;27;19914;-43
2022/12/12 04:27:21;;;;;;;;;;;1.30;99.90;;;;;;5140855;27;20286;-43
2022/12/12 04:30:01;;;;;;;;;;;1.30;99.90;;;;;;5141250;27;19915;-43
2022/12/12 04:32:35;;;;;;;;;;;1.30;99.90;;;;;;5140868;27;20018;-43
2022/12/12 04:35:12;;;;;;;;;;;1.20;99.90;;;;;;5140753;27;19915;-44
2022/12/12 04:37:41;;;;;;;;;;;1.20;99.90;;;;;;5141011;27;20251;-42
2022/12/12 04:40:08;;;;;;;;;;;1.30;99.90;;;;;;5140678;27;19908;-43
2022/12/12 04:42:41;;;;;;;;;;;1.20;99.90;;;;;;5140831;27;19930;-43
2022/12/12 04:45:09;;;;;;;;;;;1.20;99.90;;;;;;5140844;27;19955;-44
2022/12/12 04:47:36;;;;;;;;;;;1.20;99.90;;;;;;5140527;27;19978;-43
2022/12/12 04:50:02;;;;;;;;;;;1.20;99.90;;;;;;5140577;27;19934;-43
2022/12/12 04:52:30;;;;;;;;;;;1.20;99.90;;;;;;5140897;27;20350;-44
2022/12/12 04:54:59;;;;;;;;;;;1.20;99.90;;;;;;5140354;27;19911;-43
2022/12/12 04:57:28;;;;;;;;;;;1.20;99.90;;;;;;5140393;27;19917;-43
2022/12/12 04:59:54;;;;;;;;;;;1.20;99.90;;;;;;5140136;27;19926;-43
2022/12/12 05:02:22;;;;;;;;;;;1.20;99.90;;;;;;5140682;27;19907;-43
2022/12/12 05:05:00;;;;;;;;;;;1.20;99.90;;;;;;5140153;27;19951;-43
2022/12/12 05:07:46;;;;;;;;;;;1.20;99.90;;;;;;5140498;27;19908;-42
2022/12/12 05:10:13;;;;;;;;;;;1.20;99.90;;;;;;5122085;27;19912;-43
2022/12/12 05:12:43;;;;;;;;;;;1.20;99.90;;;;;;5140259;27;20385;-43
2022/12/12 05:15:08;;;;;;;;;;;1.20;99.90;;;;;;5140178;27;19950;-43
2022/12/12 05:17:39;;;;;;;;;;;1.20;99.90;;;;;;5140301;27;19908;-43
2022/12/12 05:20:05;;;;;;;;;;;1.30;99.90;;;;;;5139965;27;19957;-43
2022/12/12 05:22:30;;;;;;;;;;;1.30;99.90;;;;;;5139616;27;19908;-43
2022/12/12 05:24:56;;;;;;;;;;;1.30;99.90;;;;;;5140228;27;20311;-43
2022/12/12 05:27:22;;;;;;;;;;;1.40;99.90;;;;;;5139771;27;19998;-43
2022/12/12 05:29:47;;;;;;;;;;;1.40;99.90;;;;;;5139592;27;19912;-43
2022/12/12 05:32:13;;;;;;;;;;;1.40;99.90;;;;;;5139446;27;19947;-43
2022/12/12 05:34:38;;;;;;;;;;;1.50;99.90;;;;;;5140180;27;19908;-44
2022/12/12 05:37:04;;;;;;;;;;;1.50;99.90;;;;;;5139651;27;20316;-43
2022/12/12 05:39:30;;;;;;;;;;;1.50;99.90;;;;;;5139417;27;19907;-43
2022/12/12 05:41:55;;;;;;;;;;;1.50;99.90;;;;;;5139744;27;19935;-42
2022/12/12 05:44:21;;;;;;;;;;;1.50;99.90;;;;;;5139634;27;19907;-42
2022/12/12 05:46:47;;;;;;;;;;;1.50;99.90;;;;;;5139699;27;19911;-44
2022/12/12 05:49:12;;;;;;;;;;;1.50;99.90;;;;;;5139255;27;19911;-45
2022/12/12 05:51:38;;;;;;;;;;;1.50;99.90;;;;;;5139319;27;19951;-43
2022/12/12 05:54:04;;;;;;;;;;;1.50;99.90;;;;;;5139182;27;19914;-43
2022/12/12 05:56:29;;;;;;;;;;;1.50;99.90;;;;;;5139685;27;19907;-43
2022/12/12 05:58:55;;;;;;;;;;;1.50;99.90;;;;;;5138978;27;20014;-43
2022/12/12 06:01:21;;;;;;;;;;;1.60;99.90;;;;;;5120633;27;20051;-44
2022/12/12 06:03:46;;;;;;;;;;;1.50;99.90;;;;;;5139592;27;19907;-43
2022/12/12 06:06:12;;;;;;;;;;;1.60;99.90;;;;;;5139106;27;19907;-43
2022/12/12 06:08:37;;;;;;;;;;;1.60;99.90;;;;;;5139550;27;20373;-42
2022/12/12 06:11:05;;;;;;;;;;;1.60;99.90;;;;;;5139114;27;19911;-43
2022/12/12 06:13:31;;;;;;;;;;;1.50;99.90;;;;;;5139178;27;19950;-43
2022/12/12 06:15:56;;;;;;;;;;;1.60;99.90;;;;;;5139153;27;19908;-43
2022/12/12 06:18:22;;;;;;;;;;;1.60;99.90;;;;;;5139119;27;19907;-43
2022/12/12 06:20:47;;;;;;;;;;;1.60;99.90;;;;;;5139111;27;19907;-43
2022/12/12 06:23:13;;;;;;;;;;;1.60;99.90;;;;;;5138739;27;20362;-42
2022/12/12 06:25:39;;;;;;;;;;;1.60;99.90;;;;;;5138896;28;19957;-44
2022/12/12 06:28:05;;;;;;;;;;;1.60;99.90;;;;;;5139018;28;19950;-43
2022/12/12 06:30:30;;;;;;;;;;;1.60;99.90;;;;;;5139196;28;20348;-44
2022/12/12 06:32:56;;;;;;;;;;;1.60;99.90;;;;;;5139266;28;20011;-42
2022/12/12 06:35:22;;;;;;;;;;;1.60;99.90;;;;;;5138865;28;19911;-42
2022/12/12 06:37:48;;;;;;;;;;;1.60;99.90;;;;;;5139245;28;20389;-42
2022/12/12 06:40:13;;;;;;;;;;;1.60;99.90;;;;;;5138932;28;19907;-42
2022/12/12 06:42:39;;;;;;;;;;;1.60;99.90;;;;;;5138537;28;20366;-43
2022/12/12 06:45:05;;;;;;;;;;;1.60;99.90;;;;;;5138320;28;19914;-43
2022/12/12 06:47:31;;;;;;;;;;;1.70;99.90;;;;;;5138592;28;19912;-43
2022/12/12 06:49:57;;;;;;;;;;;1.70;99.90;;;;;;5138902;28;19919;-44
2022/12/12 06:52:23;;;;;;;;;;;1.70;99.90;;;;;;5138813;28;19908;-43
2022/12/12 06:54:48;;;;;;;;;;;1.70;99.90;;;;;;5138793;28;19908;-43
2022/12/12 06:57:14;;;;;;;;;;;1.70;99.90;;;;;;5138804;28;20313;-42
2022/12/12 06:59:40;;;;;;;;;;;1.70;99.90;;;;;;5138504;28;19973;-42
2022/12/12 07:02:06;;;;;;;;;;;1.70;99.90;;;;;;5138932;28;19918;-42
2022/12/12 07:04:31;;;;;;;;;;;1.70;99.90;;;;;;5138298;28;19915;-43
2022/12/12 07:06:57;;;;;;;;;;;1.70;99.90;;;;;;5138718;28;19907;-43
2022/12/12 07:09:23;;;;;;;;;;;1.70;99.90;;;;;;5138631;28;20255;-44
2022/12/12 07:11:48;;;;;;;;;;;1.80;99.90;;;;;;5138913;28;19955;-42
2022/12/12 07:14:14;;;;;;;;;;;1.70;99.90;;;;;;5138422;28;19922;-43
2022/12/12 07:16:39;;;;;;;;;;;1.70;99.90;;;;;;5138395;28;20362;-43
2022/12/12 07:19:05;;;;;;;;;;;1.70;99.90;;;;;;5138871;28;19911;-42
2022/12/12 07:21:31;;;;;;;;;;;1.70;99.90;;;;;;5138622;28;19930;-43
2022/12/12 07:23:56;;;;;;;;;;;1.70;99.90;;;;;;5138498;28;19907;-42
2022/12/12 07:26:22;;;;;;;;;;;1.70;99.90;;;;;;5138359;28;20492;-43
2022/12/12 07:28:49;;;;;;;;;;;1.70;99.90;;;;;;5138473;28;20386;-43
2022/12/12 07:31:16;;;;;;;;;;;1.70;99.90;;;;;;5138209;28;19918;-42
2022/12/12 07:33:41;;;;;;;;;;;1.70;99.90;;;;;;5138578;27;20331;-42
2022/12/12 07:36:07;;;;;;;;;;;1.70;99.90;;;;;;5140890;27;19932;-43
2022/12/12 07:38:33;;;;;;;;;;;1.70;99.90;;;;;;5142232;27;20304;-44
2022/12/12 07:41:12;;;;;;;;;;;1.80;99.90;;;;;;5142038;27;20255;-42
2022/12/12 07:43:38;;;;;;;;;;;1.70;99.90;;;;;;5141973;27;19907;-42
2022/12/12 07:46:07;;;;;;;;;;;1.70;99.90;;;;;;5141880;27;19908;-44
2022/12/12 07:48:33;;;;;;;;;;;1.70;99.90;;;;;;5141195;27;20347;-44
2022/12/12 07:51:00;;;;;;;;;;;1.70;99.90;;;;;;5141615;27;19911;-43
2022/12/12 07:53:26;;;;;;;;;;;1.70;99.90;;;;;;5141793;27;19913;-43
2022/12/12 07:55:52;;;;;;;;;;;1.60;99.90;;;;;;5141288;27;19908;-43
2022/12/12 07:58:17;;;;;;;;;;;1.60;99.90;;;;;;5141407;27;19919;-43
2022/12/12 08:00:43;;;;;;;;;;;1.60;99.90;;;;;;5141663;27;19919;-44
2022/12/12 08:03:09;;;;;;;;;;;1.60;99.90;;;;;;5141547;27;19914;-44
2022/12/12 08:05:37;;;;;;;;;;;1.50;99.90;;;;;;5141491;27;19960;-45
2022/12/12 08:08:03;;;;;;;;;;;1.50;99.90;;;;;;5141509;27;19940;-44
2022/12/12 08:10:29;;;;;;;;;;;1.60;99.90;;;;;;5140988;27;19912;-43
2022/12/12 08:12:54;;;;;;;;;;;1.50;99.90;;;;;;5141188;27;19908;-42
2022/12/12 08:15:20;;;;;;;;;;;1.60;99.90;;;;;;5141501;27;20274;-44
2022/12/12 08:17:45;;;;;;;;;;;1.50;99.90;;;;;;5140976;27;19911;-43
2022/12/12 08:20:11;;;;;;;;;;;1.50;99.90;;;;;;5140769;27;19914;-43
2022/12/12 08:22:37;;;;;;;;;;;1.60;99.90;;;;;;5141450;27;19907;-43
2022/12/12 08:25:02;;;;;;;;;;;1.60;99.90;;;;;;5141142;27;19938;-44
2022/12/12 08:27:29;;;;;;;;;;;1.60;99.90;;;;;;5141107;27;19962;-43
2022/12/12 08:29:54;;;;;;;;;;;1.60;99.90;;;;;;5140806;27;19954;-43
2022/12/12 08:32:20;;;;;;;;;;;1.60;99.90;;;;;;5140995;27;19907;-44
2022/12/12 08:34:46;;;;;;;;;;;1.60;99.90;;;;;;5140783;27;19953;-44
2022/12/12 08:37:12;;;;;;;;;;;1.70;99.90;;;;;;5140248;27;19907;-43
2022/12/12 08:39:38;;;;;;;;;;;1.70;99.90;;;;;;5140331;27;20278;-43
2022/12/12 08:42:03;;;;;;;;;;;1.70;99.90;;;;;;5140781;27;19908;-43
2022/12/12 08:44:30;;;;;;;;;;;1.80;99.90;;;;;;5140200;27;19994;-43
2022/12/12 08:46:55;;;;;;;;;;;1.80;99.90;;;;;;5140108;27;19915;-46
2022/12/12 08:49:21;;;;;;;;;;;1.80;99.90;;;;;;5140179;27;19911;-44
2022/12/12 08:51:47;;;;;;;;;;;1.80;99.90;;;;;;5140235;27;19908;-46
2022/12/12 08:54:13;;;;;;;;;;;1.80;99.90;;;;;;5140143;27;20362;-43
2022/12/12 08:56:39;;;;;;;;;;;1.90;99.90;;;;;;5140507;27;19915;-43
2022/12/12 08:59:05;;;;;;;;;;;1.90;99.90;;;;;;5139755;27;19920;-45
2022/12/12 09:01:31;;;;;;;;;;;1.90;99.90;;;;;;5139556;27;19907;-45
2022/12/12 09:03:57;;;;;;;;;;;2.00;99.90;;;;;;5139688;27;19984;-43
2022/12/12 09:06:23;;;;;;;;;;;2.00;99.90;;;;;;5140047;27;19974;-45
2022/12/12 09:08:49;;;;;;;;;;;2.00;99.90;;;;;;5140210;27;19908;-44
2022/12/12 09:11:15;;;;;;;;;;;2.10;99.90;;;;;;5140088;27;19912;-46
2022/12/12 09:13:42;;;;;;;;;;;2.10;99.90;;;;;;5140061;27;19908;-47
2022/12/12 09:16:09;;;;;;;;;;;2.20;99.90;;;;;;5140172;27;19921;-44
2022/12/12 09:18:35;;;;;;;;;;;2.20;99.90;;;;;;5139853;27;19915;-46
2022/12/12 09:21:01;;;;;;;;;;;2.20;99.90;;;;;;5139801;27;19950;-45
2022/12/12 09:23:27;;;;;;;;;;;2.30;99.90;;;;;;5139735;27;19915;-46
2022/12/12 09:25:53;;;;;;;;;;;2.30;99.90;;;;;;5139627;27;19915;-44
2022/12/12 09:28:20;;;;;;;;;;;2.30;99.90;;;;;;5140043;27;19907;-46
2022/12/12 09:30:46;;;;;;;;;;;2.40;99.90;;;;;;5139498;27;20417;-46
2022/12/12 09:33:12;;;;;;;;;;;2.40;99.90;;;;;;5139365;27;19907;-48
2022/12/12 09:35:38;;;;;;;;;;;2.50;99.90;;;;;;5139410;27;19986;-47
2022/12/12 09:38:03;;;;;;;;;;;2.50;99.90;;;;;;5139658;27;19950;-45
2022/12/12 09:40:29;;;;;;;;;;;2.60;99.90;;;;;;5139596;27;19912;-46
2022/12/12 09:42:55;;;;;;;;;;;2.60;99.90;;;;;;5139910;27;19935;-43
2022/12/12 09:45:20;;;;;;;;;;;2.70;99.90;;;;;;5139338;27;19955;-50
2022/12/12 09:47:54;;;;;;;;;;;2.70;99.90;;;;;;5139643;27;19911;-44
2022/12/12 09:50:29;;;;;;;;;;;2.80;99.90;;;;;;5139310;27;19918;-47
2022/12/12 09:52:57;;;;;;;;;;;2.80;99.90;;;;;;5139274;27;19907;-47
2022/12/12 09:55:23;;;;;;;;;;;2.90;99.90;;;;;;5139274;27;20406;-45
2022/12/12 09:57:56;;;;;;;;;;;2.90;99.90;;;;;;5138339;27;19933;-44
2022/12/12 10:00:22;;;;;;;;;;;3.00;99.90;;;;;;5138918;27;19919;-46
2022/12/12 10:03:06;;;;;;;;;;;3.00;99.90;;;;;;5139213;27;19908;-46
2022/12/12 10:05:44;;;;;;;;;;;3.10;99.90;;;;;;5138943;27;19907;-46
2022/12/12 10:08:22;;;;;;;;;;;3.10;99.90;;;;;;5138989;27;19907;-43
2022/12/12 10:10:50;;;;;;;;;;;2.40;99.90;;;;;;5139002;27;19917;-44
2022/12/12 10:13:26;;;;;;;;;;;3.20;99.90;;;;;;5139037;27;19911;-43
2022/12/12 10:15:57;;;;;;;;;;;3.30;99.90;;;;;;5138850;27;19994;-47
2022/12/12 10:18:43;;;;;;;;;;;3.30;99.90;;;;;;5139033;27;19941;-43
2022/12/12 10:21:15;;;;;;;;;;;3.40;99.90;;;;;;5138803;27;19957;-47
2022/12/12 10:23:45;;;;;;;;;;;3.40;99.90;;;;;;5138960;28;19979;-46
2022/12/12 10:26:19;;;;;;;;;;;3.50;99.90;;;;;;5138871;28;19975;-45
2022/12/12 10:28:47;;;;;;;;;;;3.50;99.90;;;;;;5138711;28;19908;-47
2022/12/12 10:31:28;;;;;;;;;;;3.60;99.90;;;;;;5138787;28;19919;-44
2022/12/12 10:34:13;;;;;;;;;;;3.60;99.90;;;;;;5138603;28;19907;-46
2022/12/12 10:36:47;;;;;;;;;;;3.70;99.90;;;;;;5138645;28;19908;-43
2022/12/12 10:39:32;;;;;;;;;;;3.70;99.90;;;;;;5138792;28;19907;-48
2022/12/12 10:42:32;;;;;;;;;;;3.70;99.90;;;;;;5138748;28;20380;-46
2022/12/12 10:45:16;;;;;;;;;;;3.80;99.90;;;;;;5035375;28;19916;-45
2022/12/12 10:47:43;;;;;;;;;;;3.90;99.90;;;;;;5129867;28;19930;-44
2022/12/12 10:50:27;;;;;;;;;;;4.00;99.90;;;;;;5138663;28;19912;-46
2022/12/12 10:52:52;;;;;;;;;;;4.10;99.90;;;;;;5138843;28;19907;-45
2022/12/12 10:55:20;;;;;;;;;;;4.20;99.90;;;;;;5139004;28;19985;-45
2022/12/12 10:57:45;;;;;;;;;;;4.30;99.90;;;;;;5138567;28;20362;-46
2022/12/12 11:00:27;;;;;;;;;;;4.30;99.90;;;;;;5138493;28;19942;-45
2022/12/12 11:02:55;;;;;;;;;;;4.40;99.90;;;;;;5138925;28;20358;-45
2022/12/12 11:05:22;;;;;;;;;;;4.50;99.90;;;;;;5138755;28;19914;-46
2022/12/12 11:07:57;;;;;;;;;;;4.60;99.90;;;;;;5138668;28;19907;-44
2022/12/12 11:10:25;;;;;;;;;;;4.80;99.90;;;;;;5141874;27;19957;-45
2022/12/12 11:12:55;;;;;;;;;;;4.90;99.90;;;;;;5142609;27;19914;-43
2022/12/12 11:15:24;;;;;;;;;;;5.10;99.90;;;;;;5142344;27;19912;-44
2022/12/12 11:17:50;;;;;;;;;;;5.10;99.90;;;;;;5142479;27;19952;-44
2022/12/12 11:20:17;;;;;;;;;;;5.20;99.90;;;;;;5142512;27;20002;-44
2022/12/12 11:22:43;;;;;;;;;;;5.20;99.90;;;;;;5142409;27;19908;-44
2022/12/12 11:25:22;;;;;;;;;;;5.20;99.90;;;;;;5142348;27;19908;-45
2022/12/12 11:27:47;;;;;;;;;;;5.20;99.90;;;;;;5142160;27;20378;-47
2022/12/12 11:30:21;;;;;;;;;;;5.20;99.90;;;;;;5141924;27;19911;-44
2022/12/12 11:32:48;;;;;;;;;;;5.20;99.90;;;;;;5142102;27;19908;-43
2022/12/12 11:35:22;;;;;;;;;;;5.20;99.90;;;;;;5142133;27;19907;-44
2022/12/12 11:37:48;;;;;;;;;;;5.20;99.90;;;;;;5142138;27;20311;-44
2022/12/12 11:40:40;;;;;;;;;;;5.20;99.90;;;;;;5141835;27;20353;-46
2022/12/12 11:43:06;;;;;;;;;;;5.20;99.90;;;;;;5137350;27;19959;-43
2022/12/12 11:45:31;;;;;;;;;;;5.20;99.90;;;;;;5141789;27;19914;-44
2022/12/12 11:47:57;;;;;;;;;;;5.20;99.90;;;;;;5141598;27;19907;-44
2022/12/12 11:50:24;;;;;;;;;;;5.20;99.90;;;;;;5141838;27;19919;-45
2022/12/12 11:52:51;;;;;;;;;;;5.20;99.90;;;;;;5141883;27;19907;-45
2022/12/12 11:55:22;;;;;;;;;;;5.20;99.90;;;;;;5141723;27;20023;-43
2022/12/12 11:57:47;;;;;;;;;;;5.20;99.90;;;;;;5141810;27;19907;-43
2022/12/12 12:00:19;;;;;;;;;;;5.10;99.90;;;;;;5141196;27;19926;-44
2022/12/12 12:03:03;;;;;;;;;;;5.10;99.90;;;;;;5141670;27;19914;-43
2022/12/12 12:05:32;;;;;;;;;;;5.10;99.90;;;;;;5141368;27;19947;-44
2022/12/12 12:08:00;;;;;;;;;;;5.10;99.90;;;;;;5141289;27;19930;-43
2022/12/12 12:10:42;;;;;;;;;;;5.10;99.90;;;;;;5141359;27;19919;-43
2022/12/12 12:13:18;;;;;;;;;;;5.10;99.90;;;;;;5141205;27;19907;-43
2022/12/12 12:15:53;;;;;;;;;;;5.00;99.90;;;;;;5141281;27;19908;-43
2022/12/12 12:18:25;;;;;;;;;;;5.00;99.90;;;;;;5141078;27;20014;-44
2022/12/12 12:21:09;;;;;;;;;;;5.00;99.90;;;;;;5140471;27;19908;-44
2022/12/12 12:23:52;;;;;;;;;;;5.00;99.90;;;;;;5141281;27;19907;-44
2022/12/12 12:26:24;;;;;;;;;;;5.00;99.90;;;;;;5141217;27;19908;-43
2022/12/12 12:29:08;;;;;;;;;;;4.90;99.90;;;;;;5141185;27;19929;-43
2022/12/12 12:31:39;;;;;;;;;;;4.90;99.90;;;;;;5140882;27;19912;-44
2022/12/12 12:34:14;;;;;;;;;;;4.90;99.90;;;;;;5141035;27;19907;-43
2022/12/12 12:36:42;;;;;;;;;;;4.90;99.90;;;;;;5140964;27;20300;-43
2022/12/12 12:39:16;;;;;;;;;;;4.90;99.90;;;;;;5140685;27;19907;-43
2022/12/12 12:41:48;;;;;;;;;;;4.80;99.90;;;;;;5140936;27;19907;-43
2022/12/12 12:44:30;;;;;;;;;;;4.80;99.90;;;;;;5140691;27;19914;-43
2022/12/12 12:46:55;;;;;;;;;;;4.80;99.90;;;;;;5140909;27;19908;-43
2022/12/12 12:49:47;;;;;;;;;;;4.80;99.90;;;;;;5140599;27;19907;-45
2022/12/12 12:52:16;;;;;;;;;;;4.80;99.90;;;;;;5135475;27;19907;-43
2022/12/12 12:54:45;;;;;;;;;;;4.80;99.90;;;;;;5140249;27;20343;-44
2022/12/12 12:57:17;;;;;;;;;;;4.80;99.90;;;;;;5140628;27;19930;-43
2022/12/12 12:59:44;;;;;;;;;;;4.80;99.90;;;;;;5140009;27;19919;-44
2022/12/12 13:02:18;;;;;;;;;;;4.70;99.90;;;;;;5140166;27;20354;-43
2022/12/12 13:04:52;;;;;;;;;;;4.70;99.90;;;;;;5140623;27;20274;-43
2022/12/12 13:07:21;;;;;;;;;;;4.70;99.90;;;;;;5140074;27;19907;-43
2022/12/12 13:10:05;;;;;;;;;;;4.70;99.90;;;;;;5140173;27;19915;-43
2022/12/12 13:12:36;;;;;;;;;;;5.80;99.90;;;;;;5139963;27;19947;-44
2022/12/12 13:15:05;;;;;;;;;;;4.80;99.90;;;;;;5140377;27;19907;-43
2022/12/12 13:17:49;;;;;;;;;;;4.80;99.90;;;;;;5140098;27;20382;-44
2022/12/12 13:20:17;;;;;;;;;;;4.80;99.90;;;;;;5139884;27;19907;-44
2022/12/12 13:22:58;;;;;;;;;;;4.80;99.90;;;;;;5121253;27;20259;-43
2022/12/12 13:25:35;;;;;;;;;;;4.80;99.90;;;;;;5139967;27;19915;-43
2022/12/12 13:28:03;;;;;;;;;;;4.80;99.90;;;;;;5139932;27;19956;-44
2022/12/12 13:30:29;;;;;;;;;;;4.80;99.90;;;;;;5139635;27;19911;-44
2022/12/12 13:32:57;;;;;;;;;;;4.80;99.90;;;;;;5139838;27;19915;-44
2022/12/12 13:35:26;;;;;;;;;;;4.80;99.90;;;;;;5139600;27;19915;-43
2022/12/12 13:37:52;;;;;;;;;;;4.80;99.90;;;;;;5139537;27;19908;-44
2022/12/12 13:40:24;;;;;;;;;;;4.80;99.90;;;;;;5139517;27;19930;-44
2022/12/12 13:42:51;;;;;;;;;;;4.70;99.90;;;;;;5139895;27;20353;-45
2022/12/12 13:45:33;;;;;;;;;;;4.70;99.90;;;;;;5139421;27;20377;-44
2022/12/12 13:48:00;;;;;;;;;;;4.70;99.90;;;;;;5139068;27;20412;-46
2022/12/12 13:50:26;;;;;;;;;;;4.70;99.90;;;;;;5139478;27;20332;-45
2022/12/12 13:53:06;;;;;;;;;;;4.70;99.90;;;;;;5139290;27;19908;-42
2022/12/12 13:55:33;;;;;;;;;;;4.70;99.90;;;;;;5138889;27;20335;-43
2022/12/12 13:58:00;;;;;;;;;;;4.60;99.90;;;;;;5139077;27;19923;-45
2022/12/12 14:00:27;;;;;;;;;;;4.60;99.90;;;;;;5138719;27;19923;-44
2022/12/12 14:03:11;;;;;;;;;;;4.60;99.90;;;;;;5139590;27;19908;-45
2022/12/12 14:05:47;;;;;;;;;;;4.50;99.90;;;;;;5138490;27;20234;-45
2022/12/12 14:08:12;;;;;;;;;;;4.50;99.90;;;;;;5139239;27;19907;-43
2022/12/12 14:10:44;;;;;;;;;;;4.50;99.90;;;;;;5138869;27;19916;-43
2022/12/12 14:13:21;;;;;;;;;;;4.50;99.90;;;;;;5138944;27;19908;-44
2022/12/12 14:16:07;;;;;;;;;;;4.50;99.90;;;;;;5139103;27;19908;-44
2022/12/12 14:18:37;;;;;;;;;;;4.40;99.90;;;;;;5102835;27;20006;-44
2022/12/12 14:21:06;;;;;;;;;;;4.40;99.90;;;;;;5138877;27;19929;-45
2022/12/12 14:23:33;;;;;;;;;;;4.40;99.90;;;;;;5138732;28;19907;-44
2022/12/12 14:25:59;;;;;;;;;;;4.40;99.90;;;;;;5139043;28;19939;-44
2022/12/12 14:28:27;;;;;;;;;;;4.40;99.90;;;;;;5120397;28;20302;-43
2022/12/12 14:31:13;;;;;;;;;;;4.40;99.90;;;;;;5139026;28;20002;-44
2022/12/12 14:33:58;;;;;;;;;;;4.30;99.90;;;;;;5137710;28;19914;-43
2022/12/12 14:36:42;;;;;;;;;;;4.30;99.90;;;;;;5138764;28;19935;-45
2022/12/12 14:39:14;;;;;;;;;;;4.30;99.90;;;;;;5138879;28;19911;-44
2022/12/12 14:41:41;;;;;;;;;;;4.30;99.90;;;;;;5138683;28;19907;-44
2022/12/12 14:44:18;;;;;;;;;;;4.30;99.90;;;;;;5140126;27;19908;-43
2022/12/12 14:46:44;;;;;;;;;;;4.30;99.90;;;;;;5143106;27;19907;-43
2022/12/12 14:49:12;;;;;;;;;;;4.30;99.90;;;;;;5143273;27;19915;-45
2022/12/12 14:51:39;;;;;;;;;;;4.30;99.90;;;;;;5142830;27;19934;-44
2022/12/12 14:54:12;;;;;;;;;;;4.30;99.90;;;;;;5142906;27;19929;-45
2022/12/12 14:56:43;;;;;;;;;;;4.30;99.90;;;;;;5142822;27;20279;-43